
<gpx xmlns="http://www.topografix.com/GPX/1/1" xmlns:gpxx="http://www.garmin.com/xmlschemas/GpxExtensions/v3" xmlns:xsi="http://www.w3.org/2001/XMLSchema-instance" version="1.1" creator="Adze - http://kobotsw.com/apps/adze" xsi:schemaLocation="http://www.topografix.com/GPX/1/1 http://www.topografix.com/GPX/1/1/gpx.xsd http://www.garmin.com/xmlschemas/GpxExtensions/v3 http://www.garmin.com/xmlschemas/GpxExtensionsv3.xsd">
    <metadata>
        <name>Untitled Document</name>
        <link href="http://www.garmin.com"></link>
        <time>2018-02-04T08:32:52.489Z</time>
    </metadata>
    <wpt lon="101.338531" lat="13.734936">
        <ele>19.000000</ele>
        <time>2014-12-13T05:30:52Z</time>
        <name>LannaResort</name>
        <sym>Lodging</sym>
        <extensions>
            <gpxx:WaypointExtension xmlns:gpxx="http://www.garmin.com/xmlschemas/GpxExtensions/v3">
                <gpxx:DisplayMode>SymbolAndName</gpxx:DisplayMode>
            </gpxx:WaypointExtension>
        </extensions>
    </wpt>
    <wpt lon="101.336824" lat="13.641074">
        <ele>57.000000</ele>
        <time>2016-07-30T07:45:45Z</time>
        <name>Water Saturday</name>
        <sym>Drinking Water</sym>
        <extensions>
            <gpxx:WaypointExtension xmlns:gpxx="http://www.garmin.com/xmlschemas/GpxExtensions/v3">
                <gpxx:DisplayMode>SymbolAndName</gpxx:DisplayMode>
            </gpxx:WaypointExtension>
        </extensions>
    </wpt>
    <trk>
        <name>Saturday</name>
        <extensions>
            <gpxx:TrackExtension xmlns:gpxx="http://www.garmin.com/xmlschemas/GpxExtensions/v3">
                <gpxx:DisplayColor>Red</gpxx:DisplayColor>
            </gpxx:TrackExtension>
        </extensions>
        <trkseg>
            <trkpt lon="101.338630" lat="13.735013">
                <ele>18.880000</ele>
                <time>2016-07-30T06:04:23Z</time>
            </trkpt>
            <trkpt lon="101.338413" lat="13.735179">
                <ele>19.360000</ele>
                <time>2016-07-30T06:04:37Z</time>
            </trkpt>
            <trkpt lon="101.338633" lat="13.735754">
                <ele>16.960000</ele>
                <time>2016-07-30T06:04:55Z</time>
            </trkpt>
            <trkpt lon="101.339486" lat="13.735802">
                <ele>17.440000</ele>
                <time>2016-07-30T06:05:30Z</time>
            </trkpt>
            <trkpt lon="101.339991" lat="13.735837">
                <ele>16.000000</ele>
                <time>2016-07-30T06:06:44Z</time>
            </trkpt>
            <trkpt lon="101.339994" lat="13.735295">
                <ele>14.560000</ele>
                <time>2016-07-30T06:07:04Z</time>
            </trkpt>
            <trkpt lon="101.340102" lat="13.735163">
                <ele>15.040000</ele>
                <time>2016-07-30T06:07:09Z</time>
            </trkpt>
            <trkpt lon="101.340176" lat="13.735135">
                <ele>15.040000</ele>
                <time>2016-07-30T06:07:11Z</time>
            </trkpt>
            <trkpt lon="101.341189" lat="13.735170">
                <ele>14.560000</ele>
                <time>2016-07-30T06:07:35Z</time>
            </trkpt>
            <trkpt lon="101.341362" lat="13.735189">
                <ele>14.560000</ele>
                <time>2016-07-30T06:07:39Z</time>
            </trkpt>
            <trkpt lon="101.341584" lat="13.735464">
                <ele>14.560000</ele>
                <time>2016-07-30T06:07:48Z</time>
            </trkpt>
            <trkpt lon="101.342081" lat="13.735673">
                <ele>15.040000</ele>
                <time>2016-07-30T06:08:00Z</time>
            </trkpt>
            <trkpt lon="101.342137" lat="13.735741">
                <ele>15.040000</ele>
                <time>2016-07-30T06:08:02Z</time>
            </trkpt>
            <trkpt lon="101.342240" lat="13.736478">
                <ele>15.520000</ele>
                <time>2016-07-30T06:08:19Z</time>
            </trkpt>
            <trkpt lon="101.342263" lat="13.736500">
                <ele>15.040000</ele>
                <time>2016-07-30T06:08:20Z</time>
            </trkpt>
            <trkpt lon="101.342662" lat="13.736405">
                <ele>15.040000</ele>
                <time>2016-07-30T06:08:31Z</time>
            </trkpt>
            <trkpt lon="101.343441" lat="13.736633">
                <ele>16.480000</ele>
                <time>2016-07-30T06:08:49Z</time>
            </trkpt>
            <trkpt lon="101.344272" lat="13.736864">
                <ele>16.960000</ele>
                <time>2016-07-30T06:09:07Z</time>
            </trkpt>
            <trkpt lon="101.345938" lat="13.737245">
                <ele>13.600000</ele>
                <time>2016-07-30T06:09:45Z</time>
            </trkpt>
            <trkpt lon="101.345844" lat="13.737908">
                <ele>13.120000</ele>
                <time>2016-07-30T06:10:04Z</time>
            </trkpt>
            <trkpt lon="101.346570" lat="13.737977">
                <ele>13.600000</ele>
                <time>2016-07-30T06:10:34Z</time>
            </trkpt>
            <trkpt lon="101.347254" lat="13.737650">
                <ele>12.630000</ele>
                <time>2016-07-30T06:10:51Z</time>
            </trkpt>
            <trkpt lon="101.347832" lat="13.737605">
                <ele>12.150000</ele>
                <time>2016-07-30T06:11:05Z</time>
            </trkpt>
            <trkpt lon="101.348346" lat="13.737266">
                <ele>13.120000</ele>
                <time>2016-07-30T06:11:19Z</time>
            </trkpt>
            <trkpt lon="101.348594" lat="13.736434">
                <ele>12.630000</ele>
                <time>2016-07-30T06:11:40Z</time>
            </trkpt>
            <trkpt lon="101.348569" lat="13.736088">
                <ele>12.150000</ele>
                <time>2016-07-30T06:11:53Z</time>
            </trkpt>
            <trkpt lon="101.348418" lat="13.735980">
                <ele>12.150000</ele>
                <time>2016-07-30T06:12:06Z</time>
            </trkpt>
            <trkpt lon="101.348117" lat="13.735146">
                <ele>14.560000</ele>
                <time>2016-07-30T06:12:46Z</time>
            </trkpt>
            <trkpt lon="101.347938" lat="13.735035">
                <ele>15.040000</ele>
                <time>2016-07-30T06:12:53Z</time>
            </trkpt>
            <trkpt lon="101.347793" lat="13.735023">
                <ele>14.560000</ele>
                <time>2016-07-30T06:12:57Z</time>
            </trkpt>
            <trkpt lon="101.347690" lat="13.734606">
                <ele>13.600000</ele>
                <time>2016-07-30T06:13:12Z</time>
            </trkpt>
            <trkpt lon="101.347322" lat="13.734579">
                <ele>14.560000</ele>
                <time>2016-07-30T06:13:27Z</time>
            </trkpt>
            <trkpt lon="101.347003" lat="13.734169">
                <ele>12.630000</ele>
                <time>2016-07-30T06:13:41Z</time>
            </trkpt>
            <trkpt lon="101.346345" lat="13.734148">
                <ele>16.000000</ele>
                <time>2016-07-30T06:13:58Z</time>
            </trkpt>
            <trkpt lon="101.346225" lat="13.734125">
                <ele>15.520000</ele>
                <time>2016-07-30T06:14:06Z</time>
            </trkpt>
            <trkpt lon="101.346110" lat="13.735296">
                <ele>13.600000</ele>
                <time>2016-07-30T06:14:41Z</time>
            </trkpt>
            <trkpt lon="101.346401" lat="13.731750">
                <ele>14.080000</ele>
                <time>2016-07-30T06:17:03Z</time>
            </trkpt>
            <trkpt lon="101.346916" lat="13.729396">
                <ele>14.080000</ele>
                <time>2016-07-30T06:17:52Z</time>
            </trkpt>
            <trkpt lon="101.346941" lat="13.728516">
                <ele>15.520000</ele>
                <time>2016-07-30T06:18:09Z</time>
            </trkpt>
            <trkpt lon="101.347563" lat="13.727242">
                <ele>15.520000</ele>
                <time>2016-07-30T06:18:38Z</time>
            </trkpt>
            <trkpt lon="101.348743" lat="13.725270">
                <ele>17.440000</ele>
                <time>2016-07-30T06:19:26Z</time>
            </trkpt>
            <trkpt lon="101.349370" lat="13.724715">
                <ele>16.480000</ele>
                <time>2016-07-30T06:19:42Z</time>
            </trkpt>
            <trkpt lon="101.353363" lat="13.724491">
                <ele>16.480000</ele>
                <time>2016-07-30T06:20:59Z</time>
            </trkpt>
            <trkpt lon="101.353528" lat="13.724452">
                <ele>16.000000</ele>
                <time>2016-07-30T06:21:03Z</time>
            </trkpt>
            <trkpt lon="101.353559" lat="13.724375">
                <ele>15.520000</ele>
                <time>2016-07-30T06:21:05Z</time>
            </trkpt>
            <trkpt lon="101.353456" lat="13.723623">
                <ele>16.000000</ele>
                <time>2016-07-30T06:21:20Z</time>
            </trkpt>
            <trkpt lon="101.353499" lat="13.718203">
                <ele>14.080000</ele>
                <time>2016-07-30T06:23:08Z</time>
            </trkpt>
            <trkpt lon="101.353673" lat="13.718113">
                <ele>13.600000</ele>
                <time>2016-07-30T06:23:14Z</time>
            </trkpt>
            <trkpt lon="101.354156" lat="13.718000">
                <ele>13.600000</ele>
                <time>2016-07-30T06:23:30Z</time>
            </trkpt>
            <trkpt lon="101.354591" lat="13.717817">
                <ele>14.080000</ele>
                <time>2016-07-30T06:23:48Z</time>
            </trkpt>
            <trkpt lon="101.357116" lat="13.716826">
                <ele>14.560000</ele>
                <time>2016-07-30T06:25:19Z</time>
            </trkpt>
            <trkpt lon="101.358315" lat="13.716104">
                <ele>14.080000</ele>
                <time>2016-07-30T06:26:22Z</time>
            </trkpt>
            <trkpt lon="101.358423" lat="13.716038">
                <ele>13.600000</ele>
                <time>2016-07-30T06:27:34Z</time>
            </trkpt>
            <trkpt lon="101.359988" lat="13.714937">
                <ele>14.080000</ele>
                <time>2016-07-30T06:30:38Z</time>
            </trkpt>
            <trkpt lon="101.362833" lat="13.713509">
                <ele>15.040000</ele>
                <time>2016-07-30T06:32:19Z</time>
            </trkpt>
            <trkpt lon="101.362563" lat="13.712821">
                <ele>13.600000</ele>
                <time>2016-07-30T06:32:39Z</time>
            </trkpt>
            <trkpt lon="101.362189" lat="13.711849">
                <ele>14.080000</ele>
                <time>2016-07-30T06:33:03Z</time>
            </trkpt>
            <trkpt lon="101.362118" lat="13.710212">
                <ele>15.040000</ele>
                <time>2016-07-30T06:33:37Z</time>
            </trkpt>
            <trkpt lon="101.362112" lat="13.709529">
                <ele>15.040000</ele>
                <time>2016-07-30T06:33:53Z</time>
            </trkpt>
            <trkpt lon="101.363939" lat="13.709259">
                <ele>16.000000</ele>
                <time>2016-07-30T06:36:01Z</time>
            </trkpt>
            <trkpt lon="101.362085" lat="13.709475">
                <ele>15.040000</ele>
                <time>2016-07-30T06:40:04Z</time>
            </trkpt>
            <trkpt lon="101.361890" lat="13.708242">
                <ele>14.560000</ele>
                <time>2016-07-30T06:40:34Z</time>
            </trkpt>
            <trkpt lon="101.361768" lat="13.705460">
                <ele>15.520000</ele>
                <time>2016-07-30T06:41:41Z</time>
            </trkpt>
            <trkpt lon="101.361259" lat="13.705420">
                <ele>16.480000</ele>
                <time>2016-07-30T06:41:56Z</time>
            </trkpt>
            <trkpt lon="101.352826" lat="13.705316">
                <ele>14.560000</ele>
                <time>2016-07-30T06:44:53Z</time>
            </trkpt>
            <trkpt lon="101.352322" lat="13.705055">
                <ele>14.080000</ele>
                <time>2016-07-30T06:45:07Z</time>
            </trkpt>
            <trkpt lon="101.351565" lat="13.704268">
                <ele>15.040000</ele>
                <time>2016-07-30T06:45:31Z</time>
            </trkpt>
            <trkpt lon="101.351357" lat="13.704033">
                <ele>14.560000</ele>
                <time>2016-07-30T06:45:41Z</time>
            </trkpt>
            <trkpt lon="101.351080" lat="13.703621">
                <ele>15.520000</ele>
                <time>2016-07-30T06:45:58Z</time>
            </trkpt>
            <trkpt lon="101.351578" lat="13.703552">
                <ele>15.520000</ele>
                <time>2016-07-30T06:46:18Z</time>
            </trkpt>
            <trkpt lon="101.352543" lat="13.701967">
                <ele>13.120000</ele>
                <time>2016-07-30T06:46:56Z</time>
            </trkpt>
            <trkpt lon="101.352620" lat="13.701731">
                <ele>13.600000</ele>
                <time>2016-07-30T06:47:02Z</time>
            </trkpt>
            <trkpt lon="101.353071" lat="13.701331">
                <ele>14.080000</ele>
                <time>2016-07-30T06:47:14Z</time>
            </trkpt>
            <trkpt lon="101.353062" lat="13.700828">
                <ele>13.600000</ele>
                <time>2016-07-30T06:47:25Z</time>
            </trkpt>
            <trkpt lon="101.353387" lat="13.699908">
                <ele>14.080000</ele>
                <time>2016-07-30T06:47:53Z</time>
            </trkpt>
            <trkpt lon="101.353389" lat="13.699811">
                <ele>14.080000</ele>
                <time>2016-07-30T06:47:58Z</time>
            </trkpt>
            <trkpt lon="101.353541" lat="13.698772">
                <ele>12.150000</ele>
                <time>2016-07-30T06:48:23Z</time>
            </trkpt>
            <trkpt lon="101.354214" lat="13.698189">
                <ele>13.120000</ele>
                <time>2016-07-30T06:48:42Z</time>
            </trkpt>
            <trkpt lon="101.354567" lat="13.698287">
                <ele>14.560000</ele>
                <time>2016-07-30T06:48:50Z</time>
            </trkpt>
            <trkpt lon="101.354662" lat="13.698319">
                <ele>14.560000</ele>
                <time>2016-07-30T06:48:52Z</time>
            </trkpt>
            <trkpt lon="101.355071" lat="13.698312">
                <ele>15.040000</ele>
                <time>2016-07-30T06:49:00Z</time>
            </trkpt>
            <trkpt lon="101.355167" lat="13.698268">
                <ele>15.040000</ele>
                <time>2016-07-30T06:49:02Z</time>
            </trkpt>
            <trkpt lon="101.355243" lat="13.698189">
                <ele>15.040000</ele>
                <time>2016-07-30T06:49:04Z</time>
            </trkpt>
            <trkpt lon="101.355492" lat="13.697778">
                <ele>14.560000</ele>
                <time>2016-07-30T06:49:13Z</time>
            </trkpt>
            <trkpt lon="101.355611" lat="13.697217">
                <ele>14.560000</ele>
                <time>2016-07-30T06:49:25Z</time>
            </trkpt>
            <trkpt lon="101.356326" lat="13.696838">
                <ele>14.560000</ele>
                <time>2016-07-30T06:49:41Z</time>
            </trkpt>
            <trkpt lon="101.357435" lat="13.697013">
                <ele>15.520000</ele>
                <time>2016-07-30T06:50:03Z</time>
            </trkpt>
            <trkpt lon="101.357582" lat="13.696953">
                <ele>15.520000</ele>
                <time>2016-07-30T06:50:06Z</time>
            </trkpt>
            <trkpt lon="101.357754" lat="13.696342">
                <ele>14.560000</ele>
                <time>2016-07-30T06:50:20Z</time>
            </trkpt>
            <trkpt lon="101.358021" lat="13.696117">
                <ele>15.040000</ele>
                <time>2016-07-30T06:50:28Z</time>
            </trkpt>
            <trkpt lon="101.358174" lat="13.695730">
                <ele>15.040000</ele>
                <time>2016-07-30T06:50:37Z</time>
            </trkpt>
            <trkpt lon="101.358247" lat="13.695621">
                <ele>14.560000</ele>
                <time>2016-07-30T06:50:40Z</time>
            </trkpt>
            <trkpt lon="101.359078" lat="13.695099">
                <ele>15.520000</ele>
                <time>2016-07-30T06:51:00Z</time>
            </trkpt>
            <trkpt lon="101.359530" lat="13.695029">
                <ele>15.520000</ele>
                <time>2016-07-30T06:51:09Z</time>
            </trkpt>
            <trkpt lon="101.359813" lat="13.694665">
                <ele>15.040000</ele>
                <time>2016-07-30T06:51:19Z</time>
            </trkpt>
            <trkpt lon="101.360033" lat="13.694602">
                <ele>16.000000</ele>
                <time>2016-07-30T06:51:24Z</time>
            </trkpt>
            <trkpt lon="101.360360" lat="13.694540">
                <ele>16.000000</ele>
                <time>2016-07-30T06:51:31Z</time>
            </trkpt>
            <trkpt lon="101.360825" lat="13.693956">
                <ele>14.560000</ele>
                <time>2016-07-30T06:51:48Z</time>
            </trkpt>
            <trkpt lon="101.360856" lat="13.693601">
                <ele>12.150000</ele>
                <time>2016-07-30T06:52:00Z</time>
            </trkpt>
            <trkpt lon="101.361143" lat="13.693252">
                <ele>13.600000</ele>
                <time>2016-07-30T06:52:13Z</time>
            </trkpt>
            <trkpt lon="101.361237" lat="13.693033">
                <ele>13.120000</ele>
                <time>2016-07-30T06:52:23Z</time>
            </trkpt>
            <trkpt lon="101.361704" lat="13.692181">
                <ele>13.600000</ele>
                <time>2016-07-30T06:53:06Z</time>
            </trkpt>
            <trkpt lon="101.361917" lat="13.692054">
                <ele>14.560000</ele>
                <time>2016-07-30T06:53:19Z</time>
            </trkpt>
            <trkpt lon="101.362032" lat="13.692032">
                <ele>15.520000</ele>
                <time>2016-07-30T06:53:26Z</time>
            </trkpt>
            <trkpt lon="101.362165" lat="13.691993">
                <ele>17.440000</ele>
                <time>2016-07-30T06:53:56Z</time>
            </trkpt>
            <trkpt lon="101.363191" lat="13.691701">
                <ele>17.920000</ele>
                <time>2016-07-30T06:56:32Z</time>
            </trkpt>
            <trkpt lon="101.364719" lat="13.691540">
                <ele>17.440000</ele>
                <time>2016-07-30T06:58:32Z</time>
            </trkpt>
            <trkpt lon="101.364483" lat="13.689095">
                <ele>15.040000</ele>
                <time>2016-07-30T06:59:34Z</time>
            </trkpt>
            <trkpt lon="101.363283" lat="13.688611">
                <ele>16.000000</ele>
                <time>2016-07-30T07:00:03Z</time>
            </trkpt>
            <trkpt lon="101.362900" lat="13.688279">
                <ele>16.480000</ele>
                <time>2016-07-30T07:00:16Z</time>
            </trkpt>
            <trkpt lon="101.362992" lat="13.685737">
                <ele>15.520000</ele>
                <time>2016-07-30T07:02:15Z</time>
            </trkpt>
            <trkpt lon="101.362817" lat="13.685697">
                <ele>16.960000</ele>
                <time>2016-07-30T07:02:30Z</time>
            </trkpt>
            <trkpt lon="101.362780" lat="13.685636">
                <ele>16.960000</ele>
                <time>2016-07-30T07:02:42Z</time>
            </trkpt>
            <trkpt lon="101.362739" lat="13.685580">
                <ele>16.480000</ele>
                <time>2016-07-30T07:03:01Z</time>
            </trkpt>
            <trkpt lon="101.362909" lat="13.685281">
                <ele>15.520000</ele>
                <time>2016-07-30T07:03:41Z</time>
            </trkpt>
            <trkpt lon="101.363074" lat="13.684859">
                <ele>16.960000</ele>
                <time>2016-07-30T07:04:07Z</time>
            </trkpt>
            <trkpt lon="101.362817" lat="13.684702">
                <ele>20.810000</ele>
                <time>2016-07-30T07:04:20Z</time>
            </trkpt>
            <trkpt lon="101.362326" lat="13.684708">
                <ele>23.210000</ele>
                <time>2016-07-30T07:04:37Z</time>
            </trkpt>
            <trkpt lon="101.361561" lat="13.684633">
                <ele>20.810000</ele>
                <time>2016-07-30T07:04:59Z</time>
            </trkpt>
            <trkpt lon="101.361786" lat="13.682158">
                <ele>16.960000</ele>
                <time>2016-07-30T07:06:17Z</time>
            </trkpt>
            <trkpt lon="101.361421" lat="13.681517">
                <ele>16.480000</ele>
                <time>2016-07-30T07:06:42Z</time>
            </trkpt>
            <trkpt lon="101.360658" lat="13.680964">
                <ele>17.440000</ele>
                <time>2016-07-30T07:07:13Z</time>
            </trkpt>
            <trkpt lon="101.359042" lat="13.680619">
                <ele>18.400000</ele>
                <time>2016-07-30T07:08:05Z</time>
            </trkpt>
            <trkpt lon="101.358831" lat="13.680372">
                <ele>18.880000</ele>
                <time>2016-07-30T07:08:17Z</time>
            </trkpt>
            <trkpt lon="101.358520" lat="13.679199">
                <ele>18.400000</ele>
                <time>2016-07-30T07:08:53Z</time>
            </trkpt>
            <trkpt lon="101.358321" lat="13.678502">
                <ele>17.920000</ele>
                <time>2016-07-30T07:09:13Z</time>
            </trkpt>
            <trkpt lon="101.355410" lat="13.678007">
                <ele>20.320000</ele>
                <time>2016-07-30T07:10:49Z</time>
            </trkpt>
            <trkpt lon="101.354813" lat="13.677581">
                <ele>20.320000</ele>
                <time>2016-07-30T07:11:17Z</time>
            </trkpt>
            <trkpt lon="101.354576" lat="13.677277">
                <ele>21.290000</ele>
                <time>2016-07-30T07:11:30Z</time>
            </trkpt>
            <trkpt lon="101.353927" lat="13.676842">
                <ele>22.730000</ele>
                <time>2016-07-30T07:12:00Z</time>
            </trkpt>
            <trkpt lon="101.354005" lat="13.676460">
                <ele>23.210000</ele>
                <time>2016-07-30T07:12:13Z</time>
            </trkpt>
            <trkpt lon="101.354377" lat="13.676070">
                <ele>22.730000</ele>
                <time>2016-07-30T07:12:28Z</time>
            </trkpt>
            <trkpt lon="101.355065" lat="13.674962">
                <ele>23.690000</ele>
                <time>2016-07-30T07:13:00Z</time>
            </trkpt>
            <trkpt lon="101.355555" lat="13.674575">
                <ele>23.690000</ele>
                <time>2016-07-30T07:13:14Z</time>
            </trkpt>
            <trkpt lon="101.355575" lat="13.674496">
                <ele>23.690000</ele>
                <time>2016-07-30T07:13:16Z</time>
            </trkpt>
            <trkpt lon="101.354870" lat="13.672272">
                <ele>22.730000</ele>
                <time>2016-07-30T07:14:33Z</time>
            </trkpt>
            <trkpt lon="101.354948" lat="13.671801">
                <ele>24.170000</ele>
                <time>2016-07-30T07:14:49Z</time>
            </trkpt>
            <trkpt lon="101.354812" lat="13.670960">
                <ele>26.090000</ele>
                <time>2016-07-30T07:15:16Z</time>
            </trkpt>
            <trkpt lon="101.354692" lat="13.670410">
                <ele>26.570000</ele>
                <time>2016-07-30T07:15:34Z</time>
            </trkpt>
            <trkpt lon="101.354768" lat="13.669485">
                <ele>26.090000</ele>
                <time>2016-07-30T07:16:03Z</time>
            </trkpt>
            <trkpt lon="101.354928" lat="13.668171">
                <ele>28.500000</ele>
                <time>2016-07-30T07:16:42Z</time>
            </trkpt>
            <trkpt lon="101.355022" lat="13.666322">
                <ele>27.530000</ele>
                <time>2016-07-30T07:17:34Z</time>
            </trkpt>
            <trkpt lon="101.354960" lat="13.665946">
                <ele>24.170000</ele>
                <time>2016-07-30T07:17:44Z</time>
            </trkpt>
            <trkpt lon="101.354904" lat="13.665437">
                <ele>19.840000</ele>
                <time>2016-07-30T07:17:57Z</time>
            </trkpt>
            <trkpt lon="101.354707" lat="13.664319">
                <ele>15.520000</ele>
                <time>2016-07-30T07:18:25Z</time>
            </trkpt>
            <trkpt lon="101.354540" lat="13.663868">
                <ele>20.320000</ele>
                <time>2016-07-30T07:18:36Z</time>
            </trkpt>
            <trkpt lon="101.354588" lat="13.663433">
                <ele>25.130000</ele>
                <time>2016-07-30T07:18:48Z</time>
            </trkpt>
            <trkpt lon="101.354865" lat="13.663035">
                <ele>28.020000</ele>
                <time>2016-07-30T07:19:01Z</time>
            </trkpt>
            <trkpt lon="101.355306" lat="13.661964">
                <ele>30.420000</ele>
                <time>2016-07-30T07:19:33Z</time>
            </trkpt>
            <trkpt lon="101.355342" lat="13.661525">
                <ele>31.380000</ele>
                <time>2016-07-30T07:19:46Z</time>
            </trkpt>
            <trkpt lon="101.354946" lat="13.660856">
                <ele>29.940000</ele>
                <time>2016-07-30T07:20:09Z</time>
            </trkpt>
            <trkpt lon="101.352096" lat="13.660939">
                <ele>29.460000</ele>
                <time>2016-07-30T07:21:16Z</time>
            </trkpt>
            <trkpt lon="101.351975" lat="13.660884">
                <ele>28.980000</ele>
                <time>2016-07-30T07:21:20Z</time>
            </trkpt>
            <trkpt lon="101.350908" lat="13.657984">
                <ele>40.510000</ele>
                <time>2016-07-30T07:22:51Z</time>
            </trkpt>
            <trkpt lon="101.351637" lat="13.657060">
                <ele>37.150000</ele>
                <time>2016-07-30T07:23:23Z</time>
            </trkpt>
            <trkpt lon="101.352318" lat="13.655042">
                <ele>35.230000</ele>
                <time>2016-07-30T07:24:15Z</time>
            </trkpt>
            <trkpt lon="101.353254" lat="13.654346">
                <ele>37.630000</ele>
                <time>2016-07-30T07:24:46Z</time>
            </trkpt>
            <trkpt lon="101.354183" lat="13.653514">
                <ele>34.740000</ele>
                <time>2016-07-30T07:25:17Z</time>
            </trkpt>
            <trkpt lon="101.354504" lat="13.652828">
                <ele>34.740000</ele>
                <time>2016-07-30T07:25:35Z</time>
            </trkpt>
            <trkpt lon="101.355424" lat="13.652287">
                <ele>35.230000</ele>
                <time>2016-07-30T07:26:01Z</time>
            </trkpt>
            <trkpt lon="101.355812" lat="13.651775">
                <ele>37.150000</ele>
                <time>2016-07-30T07:26:17Z</time>
            </trkpt>
            <trkpt lon="101.355934" lat="13.651374">
                <ele>37.630000</ele>
                <time>2016-07-30T07:26:30Z</time>
            </trkpt>
            <trkpt lon="101.356058" lat="13.651122">
                <ele>37.150000</ele>
                <time>2016-07-30T07:26:41Z</time>
            </trkpt>
            <trkpt lon="101.356358" lat="13.651062">
                <ele>37.630000</ele>
                <time>2016-07-30T07:26:54Z</time>
            </trkpt>
            <trkpt lon="101.356943" lat="13.650645">
                <ele>36.190000</ele>
                <time>2016-07-30T07:27:17Z</time>
            </trkpt>
            <trkpt lon="101.356815" lat="13.649418">
                <ele>40.510000</ele>
                <time>2016-07-30T07:27:49Z</time>
            </trkpt>
            <trkpt lon="101.357010" lat="13.648958">
                <ele>40.510000</ele>
                <time>2016-07-30T07:28:02Z</time>
            </trkpt>
            <trkpt lon="101.357441" lat="13.648144">
                <ele>39.070000</ele>
                <time>2016-07-30T07:28:25Z</time>
            </trkpt>
            <trkpt lon="101.357659" lat="13.647581">
                <ele>39.070000</ele>
                <time>2016-07-30T07:28:40Z</time>
            </trkpt>
            <trkpt lon="101.357719" lat="13.647046">
                <ele>38.590000</ele>
                <time>2016-07-30T07:28:53Z</time>
            </trkpt>
            <trkpt lon="101.357577" lat="13.645832">
                <ele>41.470000</ele>
                <time>2016-07-30T07:29:24Z</time>
            </trkpt>
            <trkpt lon="101.357986" lat="13.644388">
                <ele>44.840000</ele>
                <time>2016-07-30T07:30:06Z</time>
            </trkpt>
            <trkpt lon="101.357912" lat="13.643885">
                <ele>44.840000</ele>
                <time>2016-07-30T07:30:21Z</time>
            </trkpt>
            <trkpt lon="101.357843" lat="13.643318">
                <ele>41.470000</ele>
                <time>2016-07-30T07:30:37Z</time>
            </trkpt>
            <trkpt lon="101.357924" lat="13.642861">
                <ele>40.990000</ele>
                <time>2016-07-30T07:30:50Z</time>
            </trkpt>
            <trkpt lon="101.358329" lat="13.642673">
                <ele>44.360000</ele>
                <time>2016-07-30T07:31:02Z</time>
            </trkpt>
            <trkpt lon="101.356780" lat="13.641264">
                <ele>46.760000</ele>
                <time>2016-07-30T07:32:13Z</time>
            </trkpt>
            <trkpt lon="101.356352" lat="13.640981">
                <ele>47.720000</ele>
                <time>2016-07-30T07:32:29Z</time>
            </trkpt>
            <trkpt lon="101.355846" lat="13.640858">
                <ele>48.680000</ele>
                <time>2016-07-30T07:32:44Z</time>
            </trkpt>
            <trkpt lon="101.354810" lat="13.640598">
                <ele>48.200000</ele>
                <time>2016-07-30T07:33:12Z</time>
            </trkpt>
            <trkpt lon="101.353326" lat="13.640804">
                <ele>46.760000</ele>
                <time>2016-07-30T07:33:56Z</time>
            </trkpt>
            <trkpt lon="101.350689" lat="13.639842">
                <ele>52.050000</ele>
                <time>2016-07-30T07:35:31Z</time>
            </trkpt>
            <trkpt lon="101.350323" lat="13.639873">
                <ele>52.050000</ele>
                <time>2016-07-30T07:35:44Z</time>
            </trkpt>
            <trkpt lon="101.349883" lat="13.640188">
                <ele>50.610000</ele>
                <time>2016-07-30T07:35:58Z</time>
            </trkpt>
            <trkpt lon="101.349699" lat="13.640611">
                <ele>49.650000</ele>
                <time>2016-07-30T07:36:10Z</time>
            </trkpt>
            <trkpt lon="101.349551" lat="13.641137">
                <ele>49.160000</ele>
                <time>2016-07-30T07:36:24Z</time>
            </trkpt>
            <trkpt lon="101.349242" lat="13.641254">
                <ele>49.650000</ele>
                <time>2016-07-30T07:36:37Z</time>
            </trkpt>
            <trkpt lon="101.348156" lat="13.640839">
                <ele>49.650000</ele>
                <time>2016-07-30T07:37:09Z</time>
            </trkpt>
            <trkpt lon="101.347338" lat="13.640294">
                <ele>51.090000</ele>
                <time>2016-07-30T07:37:38Z</time>
            </trkpt>
            <trkpt lon="101.347024" lat="13.640121">
                <ele>50.610000</ele>
                <time>2016-07-30T07:37:50Z</time>
            </trkpt>
            <trkpt lon="101.346253" lat="13.639076">
                <ele>51.570000</ele>
                <time>2016-07-30T07:38:46Z</time>
            </trkpt>
            <trkpt lon="101.346100" lat="13.638802">
                <ele>51.570000</ele>
                <time>2016-07-30T07:39:00Z</time>
            </trkpt>
            <trkpt lon="101.345754" lat="13.638096">
                <ele>54.450000</ele>
                <time>2016-07-30T07:39:47Z</time>
            </trkpt>
            <trkpt lon="101.345713" lat="13.637984">
                <ele>53.010000</ele>
                <time>2016-07-30T07:39:55Z</time>
            </trkpt>
            <trkpt lon="101.345467" lat="13.637964">
                <ele>53.490000</ele>
                <time>2016-07-30T07:40:09Z</time>
            </trkpt>
            <trkpt lon="101.344323" lat="13.639218">
                <ele>53.010000</ele>
                <time>2016-07-30T07:41:03Z</time>
            </trkpt>
            <trkpt lon="101.342745" lat="13.640017">
                <ele>54.930000</ele>
                <time>2016-07-30T07:41:56Z</time>
            </trkpt>
            <trkpt lon="101.341587" lat="13.640724">
                <ele>54.450000</ele>
                <time>2016-07-30T07:42:38Z</time>
            </trkpt>
            <trkpt lon="101.340941" lat="13.641144">
                <ele>53.010000</ele>
                <time>2016-07-30T07:42:57Z</time>
            </trkpt>
            <trkpt lon="101.340375" lat="13.641703">
                <ele>50.610000</ele>
                <time>2016-07-30T07:43:16Z</time>
            </trkpt>
            <trkpt lon="101.339913" lat="13.641797">
                <ele>51.090000</ele>
                <time>2016-07-30T07:43:29Z</time>
            </trkpt>
            <trkpt lon="101.339603" lat="13.641752">
                <ele>50.130000</ele>
                <time>2016-07-30T07:43:39Z</time>
            </trkpt>
            <trkpt lon="101.339041" lat="13.642122">
                <ele>48.680000</ele>
                <time>2016-07-30T07:43:58Z</time>
            </trkpt>
            <trkpt lon="101.336817" lat="13.641058">
                <ele>67.430000</ele>
                <time>2016-07-30T08:00:33Z</time>
            </trkpt>
            <trkpt lon="101.337148" lat="13.641138">
                <ele>61.180000</ele>
                <time>2016-07-30T08:04:01Z</time>
            </trkpt>
            <trkpt lon="101.337153" lat="13.639951">
                <ele>62.800000</ele>
                <time>2016-07-30T08:03:49Z</time>
            </trkpt>
            <trkpt lon="101.337513" lat="13.639946">
                <ele>63.600000</ele>
                <time>2016-07-30T08:04:02Z</time>
            </trkpt>
            <trkpt lon="101.338136" lat="13.639827">
                <ele>65.200000</ele>
                <time>2016-07-30T08:04:22Z</time>
            </trkpt>
            <trkpt lon="101.338588" lat="13.639600">
                <ele>66.000000</ele>
                <time>2016-07-30T08:04:40Z</time>
            </trkpt>
            <trkpt lon="101.338768" lat="13.639463">
                <ele>67.000000</ele>
                <time>2016-07-30T08:04:48Z</time>
            </trkpt>
            <trkpt lon="101.338795" lat="13.639016">
                <ele>70.000000</ele>
                <time>2016-07-30T08:05:07Z</time>
            </trkpt>
            <trkpt lon="101.338806" lat="13.638843">
                <ele>71.600000</ele>
                <time>2016-07-30T08:05:17Z</time>
            </trkpt>
            <trkpt lon="101.338822" lat="13.638775">
                <ele>71.800000</ele>
                <time>2016-07-30T08:05:21Z</time>
            </trkpt>
            <trkpt lon="101.338866" lat="13.638702">
                <ele>72.800000</ele>
                <time>2016-07-30T08:05:28Z</time>
            </trkpt>
            <trkpt lon="101.338900" lat="13.638669">
                <ele>73.200000</ele>
                <time>2016-07-30T08:05:43Z</time>
            </trkpt>
            <trkpt lon="101.339020" lat="13.638577">
                <ele>74.000000</ele>
                <time>2016-07-30T08:06:02Z</time>
            </trkpt>
            <trkpt lon="101.338880" lat="13.638624">
                <ele>73.400000</ele>
                <time>2016-07-30T08:06:23Z</time>
            </trkpt>
            <trkpt lon="101.338865" lat="13.638490">
                <ele>75.200000</ele>
                <time>2016-07-30T08:06:37Z</time>
            </trkpt>
            <trkpt lon="101.338863" lat="13.638469">
                <ele>75.200000</ele>
                <time>2016-07-30T08:06:39Z</time>
            </trkpt>
            <trkpt lon="101.338987" lat="13.638219">
                <ele>77.000000</ele>
                <time>2016-07-30T08:06:54Z</time>
            </trkpt>
            <trkpt lon="101.339108" lat="13.638235">
                <ele>76.600000</ele>
                <time>2016-07-30T08:07:02Z</time>
            </trkpt>
            <trkpt lon="101.339157" lat="13.637990">
                <ele>78.800000</ele>
                <time>2016-07-30T08:07:21Z</time>
            </trkpt>
            <trkpt lon="101.339198" lat="13.637975">
                <ele>79.000000</ele>
                <time>2016-07-30T08:07:24Z</time>
            </trkpt>
            <trkpt lon="101.339565" lat="13.638083">
                <ele>77.000000</ele>
                <time>2016-07-30T08:08:04Z</time>
            </trkpt>
            <trkpt lon="101.339870" lat="13.638043">
                <ele>77.800000</ele>
                <time>2016-07-30T08:08:20Z</time>
            </trkpt>
            <trkpt lon="101.339978" lat="13.638027">
                <ele>78.200000</ele>
                <time>2016-07-30T08:08:25Z</time>
            </trkpt>
            <trkpt lon="101.340023" lat="13.638046">
                <ele>78.000000</ele>
                <time>2016-07-30T08:08:27Z</time>
            </trkpt>
            <trkpt lon="101.340176" lat="13.638042">
                <ele>77.800000</ele>
                <time>2016-07-30T08:08:34Z</time>
            </trkpt>
            <trkpt lon="101.340510" lat="13.637823">
                <ele>78.600000</ele>
                <time>2016-07-30T08:08:54Z</time>
            </trkpt>
            <trkpt lon="101.340557" lat="13.637503">
                <ele>81.400000</ele>
                <time>2016-07-30T08:09:20Z</time>
            </trkpt>
            <trkpt lon="101.340559" lat="13.637499">
                <ele>81.400000</ele>
                <time>2016-07-30T08:09:21Z</time>
            </trkpt>
            <trkpt lon="101.340829" lat="13.637468">
                <ele>85.400000</ele>
                <time>2016-07-30T08:10:50Z</time>
            </trkpt>
            <trkpt lon="101.340961" lat="13.637708">
                <ele>79.200000</ele>
                <time>2016-07-30T08:11:18Z</time>
            </trkpt>
            <trkpt lon="101.341471" lat="13.637801">
                <ele>79.600000</ele>
                <time>2016-07-30T08:11:49Z</time>
            </trkpt>
            <trkpt lon="101.341635" lat="13.637811">
                <ele>77.800000</ele>
                <time>2016-07-30T08:11:56Z</time>
            </trkpt>
            <trkpt lon="101.341750" lat="13.637931">
                <ele>75.600000</ele>
                <time>2016-07-30T08:12:03Z</time>
            </trkpt>
            <trkpt lon="101.341879" lat="13.637936">
                <ele>75.600000</ele>
                <time>2016-07-30T08:12:09Z</time>
            </trkpt>
            <trkpt lon="101.341875" lat="13.638081">
                <ele>74.600000</ele>
                <time>2016-07-30T08:12:16Z</time>
            </trkpt>
            <trkpt lon="101.341938" lat="13.638133">
                <ele>74.200000</ele>
                <time>2016-07-30T08:12:19Z</time>
            </trkpt>
            <trkpt lon="101.342244" lat="13.638015">
                <ele>75.200000</ele>
                <time>2016-07-30T08:12:39Z</time>
            </trkpt>
            <trkpt lon="101.342438" lat="13.638069">
                <ele>73.400000</ele>
                <time>2016-07-30T08:12:51Z</time>
            </trkpt>
            <trkpt lon="101.342675" lat="13.638018">
                <ele>72.600000</ele>
                <time>2016-07-30T08:12:57Z</time>
            </trkpt>
            <trkpt lon="101.342940" lat="13.637928">
                <ele>72.800000</ele>
                <time>2016-07-30T08:13:03Z</time>
            </trkpt>
            <trkpt lon="101.343344" lat="13.637690">
                <ele>72.800000</ele>
                <time>2016-07-30T08:13:13Z</time>
            </trkpt>
            <trkpt lon="101.344638" lat="13.636996">
                <ele>71.800000</ele>
                <time>2016-07-30T08:13:44Z</time>
            </trkpt>
            <trkpt lon="101.345100" lat="13.636873">
                <ele>70.400000</ele>
                <time>2016-07-30T08:13:53Z</time>
            </trkpt>
            <trkpt lon="101.345294" lat="13.636782">
                <ele>70.600000</ele>
                <time>2016-07-30T08:13:57Z</time>
            </trkpt>
            <trkpt lon="101.345504" lat="13.636480">
                <ele>70.400000</ele>
                <time>2016-07-30T08:14:04Z</time>
            </trkpt>
            <trkpt lon="101.345749" lat="13.635804">
                <ele>69.600000</ele>
                <time>2016-07-30T08:14:16Z</time>
            </trkpt>
            <trkpt lon="101.345958" lat="13.635401">
                <ele>69.800000</ele>
                <time>2016-07-30T08:14:23Z</time>
            </trkpt>
            <trkpt lon="101.346244" lat="13.635116">
                <ele>68.200000</ele>
                <time>2016-07-30T08:14:29Z</time>
            </trkpt>
            <trkpt lon="101.346985" lat="13.634440">
                <ele>68.400000</ele>
                <time>2016-07-30T08:14:44Z</time>
            </trkpt>
            <trkpt lon="101.347470" lat="13.634187">
                <ele>69.600000</ele>
                <time>2016-07-30T08:14:53Z</time>
            </trkpt>
            <trkpt lon="101.348035" lat="13.633994">
                <ele>69.600000</ele>
                <time>2016-07-30T08:15:03Z</time>
            </trkpt>
            <trkpt lon="101.348793" lat="13.633605">
                <ele>68.000000</ele>
                <time>2016-07-30T08:15:18Z</time>
            </trkpt>
            <trkpt lon="101.348888" lat="13.633592">
                <ele>67.800000</ele>
                <time>2016-07-30T08:15:26Z</time>
            </trkpt>
            <trkpt lon="101.348880" lat="13.633687">
                <ele>67.800000</ele>
                <time>2016-07-30T08:15:32Z</time>
            </trkpt>
            <trkpt lon="101.349021" lat="13.634068">
                <ele>66.800000</ele>
                <time>2016-07-30T08:15:59Z</time>
            </trkpt>
            <trkpt lon="101.349112" lat="13.634075">
                <ele>66.400000</ele>
                <time>2016-07-30T08:16:08Z</time>
            </trkpt>
            <trkpt lon="101.348905" lat="13.633793">
                <ele>68.000000</ele>
                <time>2016-07-30T08:16:36Z</time>
            </trkpt>
            <trkpt lon="101.348936" lat="13.633543">
                <ele>68.400000</ele>
                <time>2016-07-30T08:16:51Z</time>
            </trkpt>
            <trkpt lon="101.350113" lat="13.632569">
                <ele>69.400000</ele>
                <time>2016-07-30T08:17:37Z</time>
            </trkpt>
            <trkpt lon="101.351334" lat="13.632126">
                <ele>71.000000</ele>
                <time>2016-07-30T08:18:13Z</time>
            </trkpt>
            <trkpt lon="101.352087" lat="13.631359">
                <ele>72.200000</ele>
                <time>2016-07-30T08:18:43Z</time>
            </trkpt>
            <trkpt lon="101.353483" lat="13.631367">
                <ele>73.200000</ele>
                <time>2016-07-30T08:19:16Z</time>
            </trkpt>
            <trkpt lon="101.353743" lat="13.631235">
                <ele>73.200000</ele>
                <time>2016-07-30T08:19:24Z</time>
            </trkpt>
            <trkpt lon="101.353967" lat="13.630994">
                <ele>74.400000</ele>
                <time>2016-07-30T08:19:34Z</time>
            </trkpt>
            <trkpt lon="101.354122" lat="13.630705">
                <ele>76.400000</ele>
                <time>2016-07-30T08:19:47Z</time>
            </trkpt>
            <trkpt lon="101.354206" lat="13.630540">
                <ele>78.000000</ele>
                <time>2016-07-30T08:19:55Z</time>
            </trkpt>
            <trkpt lon="101.354369" lat="13.630318">
                <ele>81.000000</ele>
                <time>2016-07-30T08:20:10Z</time>
            </trkpt>
            <trkpt lon="101.354434" lat="13.630338">
                <ele>80.600000</ele>
                <time>2016-07-30T08:20:13Z</time>
            </trkpt>
            <trkpt lon="101.354934" lat="13.630281">
                <ele>82.400000</ele>
                <time>2016-07-30T08:20:35Z</time>
            </trkpt>
            <trkpt lon="101.355154" lat="13.630090">
                <ele>83.600000</ele>
                <time>2016-07-30T08:20:47Z</time>
            </trkpt>
            <trkpt lon="101.355381" lat="13.629821">
                <ele>84.200000</ele>
                <time>2016-07-30T08:21:00Z</time>
            </trkpt>
            <trkpt lon="101.354941" lat="13.628427">
                <ele>97.600000</ele>
                <time>2016-07-30T08:22:25Z</time>
            </trkpt>
            <trkpt lon="101.354480" lat="13.628529">
                <ele>104.200000</ele>
                <time>2016-07-30T08:23:10Z</time>
            </trkpt>
            <trkpt lon="101.354328" lat="13.628285">
                <ele>105.400000</ele>
                <time>2016-07-30T08:23:31Z</time>
            </trkpt>
            <trkpt lon="101.354303" lat="13.628237">
                <ele>105.600000</ele>
                <time>2016-07-30T08:23:34Z</time>
            </trkpt>
            <trkpt lon="101.353940" lat="13.627847">
                <ele>111.600000</ele>
                <time>2016-07-30T08:24:06Z</time>
            </trkpt>
            <trkpt lon="101.353864" lat="13.627834">
                <ele>113.000000</ele>
                <time>2016-07-30T08:24:14Z</time>
            </trkpt>
            <trkpt lon="101.353588" lat="13.627746">
                <ele>118.000000</ele>
                <time>2016-07-30T08:24:46Z</time>
            </trkpt>
            <trkpt lon="101.353551" lat="13.627431">
                <ele>124.000000</ele>
                <time>2016-07-30T08:25:29Z</time>
            </trkpt>
            <trkpt lon="101.353566" lat="13.627217">
                <ele>125.800000</ele>
                <time>2016-07-30T08:25:57Z</time>
            </trkpt>
            <trkpt lon="101.353374" lat="13.626966">
                <ele>129.000000</ele>
                <time>2016-07-30T08:26:37Z</time>
            </trkpt>
            <trkpt lon="101.352893" lat="13.626780">
                <ele>136.200000</ele>
                <time>2016-07-30T08:27:33Z</time>
            </trkpt>
            <trkpt lon="101.352743" lat="13.626788">
                <ele>137.800000</ele>
                <time>2016-07-30T08:27:57Z</time>
            </trkpt>
            <trkpt lon="101.352233" lat="13.626710">
                <ele>150.000000</ele>
                <time>2016-07-30T08:29:29Z</time>
            </trkpt>
            <trkpt lon="101.351798" lat="13.626260">
                <ele>163.600000</ele>
                <time>2016-07-30T08:31:27Z</time>
            </trkpt>
            <trkpt lon="101.351743" lat="13.626246">
                <ele>164.400000</ele>
                <time>2016-07-30T08:31:31Z</time>
            </trkpt>
            <trkpt lon="101.351516" lat="13.626132">
                <ele>166.600000</ele>
                <time>2016-07-30T08:31:47Z</time>
            </trkpt>
            <trkpt lon="101.351293" lat="13.625624">
                <ele>172.000000</ele>
                <time>2016-07-30T08:32:54Z</time>
            </trkpt>
            <trkpt lon="101.351424" lat="13.625318">
                <ele>177.400000</ele>
                <time>2016-07-30T08:33:36Z</time>
            </trkpt>
            <trkpt lon="101.351591" lat="13.625221">
                <ele>178.200000</ele>
                <time>2016-07-30T08:37:11Z</time>
            </trkpt>
            <trkpt lon="101.351289" lat="13.624856">
                <ele>175.200000</ele>
                <time>2016-07-30T08:37:34Z</time>
            </trkpt>
            <trkpt lon="101.351038" lat="13.624695">
                <ele>172.600000</ele>
                <time>2016-07-30T08:37:39Z</time>
            </trkpt>
            <trkpt lon="101.350420" lat="13.624297">
                <ele>170.600000</ele>
                <time>2016-07-30T08:37:54Z</time>
            </trkpt>
            <trkpt lon="101.350249" lat="13.623938">
                <ele>166.400000</ele>
                <time>2016-07-30T08:39:59Z</time>
            </trkpt>
            <trkpt lon="101.350407" lat="13.624268">
                <ele>170.000000</ele>
                <time>2016-07-30T08:40:34Z</time>
            </trkpt>
            <trkpt lon="101.350661" lat="13.624430">
                <ele>171.600000</ele>
                <time>2016-07-30T08:40:56Z</time>
            </trkpt>
            <trkpt lon="101.350843" lat="13.624596">
                <ele>171.400000</ele>
                <time>2016-07-30T08:41:17Z</time>
            </trkpt>
            <trkpt lon="101.350745" lat="13.625038">
                <ele>174.200000</ele>
                <time>2016-07-30T08:42:07Z</time>
            </trkpt>
            <trkpt lon="101.350954" lat="13.625113">
                <ele>175.600000</ele>
                <time>2016-07-30T08:42:30Z</time>
            </trkpt>
            <trkpt lon="101.350890" lat="13.625315">
                <ele>175.800000</ele>
                <time>2016-07-30T08:42:52Z</time>
            </trkpt>
            <trkpt lon="101.350811" lat="13.625338">
                <ele>175.400000</ele>
                <time>2016-07-30T08:43:02Z</time>
            </trkpt>
            <trkpt lon="101.350816" lat="13.625421">
                <ele>174.800000</ele>
                <time>2016-07-30T08:43:11Z</time>
            </trkpt>
            <trkpt lon="101.351056" lat="13.625540">
                <ele>173.800000</ele>
                <time>2016-07-30T08:43:29Z</time>
            </trkpt>
            <trkpt lon="101.350207" lat="13.625990">
                <ele>172.600000</ele>
                <time>2016-07-30T08:44:37Z</time>
            </trkpt>
            <trkpt lon="101.350220" lat="13.626266">
                <ele>169.000000</ele>
                <time>2016-07-30T08:44:59Z</time>
            </trkpt>
            <trkpt lon="101.350015" lat="13.626202">
                <ele>172.200000</ele>
                <time>2016-07-30T08:45:20Z</time>
            </trkpt>
            <trkpt lon="101.349891" lat="13.626688">
                <ele>167.200000</ele>
                <time>2016-07-30T08:46:09Z</time>
            </trkpt>
            <trkpt lon="101.349682" lat="13.626976">
                <ele>163.200000</ele>
                <time>2016-07-30T08:46:31Z</time>
            </trkpt>
            <trkpt lon="101.349572" lat="13.627013">
                <ele>164.600000</ele>
                <time>2016-07-30T08:46:37Z</time>
            </trkpt>
            <trkpt lon="101.349537" lat="13.627043">
                <ele>165.000000</ele>
                <time>2016-07-30T08:46:41Z</time>
            </trkpt>
            <trkpt lon="101.349533" lat="13.627062">
                <ele>164.600000</ele>
                <time>2016-07-30T08:46:43Z</time>
            </trkpt>
            <trkpt lon="101.349255" lat="13.627488">
                <ele>161.200000</ele>
                <time>2016-07-30T08:47:24Z</time>
            </trkpt>
            <trkpt lon="101.349023" lat="13.627597">
                <ele>162.200000</ele>
                <time>2016-07-30T08:47:42Z</time>
            </trkpt>
            <trkpt lon="101.349192" lat="13.628034">
                <ele>152.600000</ele>
                <time>2016-07-30T08:48:21Z</time>
            </trkpt>
            <trkpt lon="101.348858" lat="13.628108">
                <ele>154.600000</ele>
                <time>2016-07-30T08:48:44Z</time>
            </trkpt>
            <trkpt lon="101.348646" lat="13.628276">
                <ele>150.400000</ele>
                <time>2016-07-30T08:49:01Z</time>
            </trkpt>
            <trkpt lon="101.348458" lat="13.628343">
                <ele>149.800000</ele>
                <time>2016-07-30T08:49:14Z</time>
            </trkpt>
            <trkpt lon="101.348206" lat="13.628269">
                <ele>152.800000</ele>
                <time>2016-07-30T08:49:45Z</time>
            </trkpt>
            <trkpt lon="101.348084" lat="13.628259">
                <ele>151.400000</ele>
                <time>2016-07-30T08:49:58Z</time>
            </trkpt>
            <trkpt lon="101.347839" lat="13.628571">
                <ele>151.200000</ele>
                <time>2016-07-30T08:50:45Z</time>
            </trkpt>
            <trkpt lon="101.347934" lat="13.628726">
                <ele>148.600000</ele>
                <time>2016-07-30T08:51:06Z</time>
            </trkpt>
            <trkpt lon="101.347772" lat="13.628850">
                <ele>149.800000</ele>
                <time>2016-07-30T08:51:32Z</time>
            </trkpt>
            <trkpt lon="101.347569" lat="13.628878">
                <ele>147.000000</ele>
                <time>2016-07-30T08:51:46Z</time>
            </trkpt>
            <trkpt lon="101.347434" lat="13.629148">
                <ele>145.600000</ele>
                <time>2016-07-30T08:52:09Z</time>
            </trkpt>
            <trkpt lon="101.347414" lat="13.629222">
                <ele>144.800000</ele>
                <time>2016-07-30T08:52:13Z</time>
            </trkpt>
            <trkpt lon="101.347546" lat="13.629349">
                <ele>141.400000</ele>
                <time>2016-07-30T08:52:30Z</time>
            </trkpt>
            <trkpt lon="101.347197" lat="13.629414">
                <ele>141.400000</ele>
                <time>2016-07-30T08:52:57Z</time>
            </trkpt>
            <trkpt lon="101.347122" lat="13.629423">
                <ele>140.800000</ele>
                <time>2016-07-30T08:53:00Z</time>
            </trkpt>
            <trkpt lon="101.346919" lat="13.629522">
                <ele>138.800000</ele>
                <time>2016-07-30T08:53:09Z</time>
            </trkpt>
            <trkpt lon="101.346824" lat="13.629599">
                <ele>137.200000</ele>
                <time>2016-07-30T08:53:18Z</time>
            </trkpt>
            <trkpt lon="101.346934" lat="13.629556">
                <ele>138.600000</ele>
                <time>2016-07-30T08:53:43Z</time>
            </trkpt>
            <trkpt lon="101.346978" lat="13.629658">
                <ele>135.200000</ele>
                <time>2016-07-30T08:54:18Z</time>
            </trkpt>
            <trkpt lon="101.346914" lat="13.629840">
                <ele>131.400000</ele>
                <time>2016-07-30T08:54:32Z</time>
            </trkpt>
            <trkpt lon="101.346883" lat="13.629982">
                <ele>129.400000</ele>
                <time>2016-07-30T08:54:43Z</time>
            </trkpt>
            <trkpt lon="101.346829" lat="13.630063">
                <ele>129.000000</ele>
                <time>2016-07-30T08:54:55Z</time>
            </trkpt>
            <trkpt lon="101.346695" lat="13.629978">
                <ele>133.000000</ele>
                <time>2016-07-30T08:55:19Z</time>
            </trkpt>
            <trkpt lon="101.346551" lat="13.629899">
                <ele>133.600000</ele>
                <time>2016-07-30T08:55:31Z</time>
            </trkpt>
            <trkpt lon="101.346377" lat="13.630077">
                <ele>131.000000</ele>
                <time>2016-07-30T08:55:48Z</time>
            </trkpt>
            <trkpt lon="101.345889" lat="13.630454">
                <ele>123.600000</ele>
                <time>2016-07-30T08:56:28Z</time>
            </trkpt>
            <trkpt lon="101.345814" lat="13.630560">
                <ele>122.200000</ele>
                <time>2016-07-30T08:56:45Z</time>
            </trkpt>
            <trkpt lon="101.345611" lat="13.630520">
                <ele>132.800000</ele>
                <time>2016-07-30T08:37:45Z</time>
            </trkpt>
            <trkpt lon="101.345144" lat="13.630269">
                <ele>129.920000</ele>
                <time>2016-07-30T08:38:20Z</time>
            </trkpt>
            <trkpt lon="101.344820" lat="13.630265">
                <ele>138.090000</ele>
                <time>2016-07-30T08:38:42Z</time>
            </trkpt>
            <trkpt lon="101.343277" lat="13.630697">
                <ele>112.610000</ele>
                <time>2016-07-30T08:40:42Z</time>
            </trkpt>
            <trkpt lon="101.342818" lat="13.630925">
                <ele>103.000000</ele>
                <time>2016-07-30T08:41:20Z</time>
            </trkpt>
            <trkpt lon="101.342385" lat="13.631312">
                <ele>86.180000</ele>
                <time>2016-07-30T08:42:02Z</time>
            </trkpt>
            <trkpt lon="101.342305" lat="13.631484">
                <ele>85.690000</ele>
                <time>2016-07-30T08:42:20Z</time>
            </trkpt>
            <trkpt lon="101.342257" lat="13.631542">
                <ele>82.810000</ele>
                <time>2016-07-30T08:42:30Z</time>
            </trkpt>
            <trkpt lon="101.342043" lat="13.631574">
                <ele>73.680000</ele>
                <time>2016-07-30T08:43:00Z</time>
            </trkpt>
            <trkpt lon="101.342036" lat="13.631878">
                <ele>74.640000</ele>
                <time>2016-07-30T08:43:22Z</time>
            </trkpt>
            <trkpt lon="101.341858" lat="13.632182">
                <ele>68.390000</ele>
                <time>2016-07-30T08:44:16Z</time>
            </trkpt>
            <trkpt lon="101.341567" lat="13.632215">
                <ele>65.510000</ele>
                <time>2016-07-30T08:44:43Z</time>
            </trkpt>
            <trkpt lon="101.340520" lat="13.632727">
                <ele>62.620000</ele>
                <time>2016-07-30T08:46:03Z</time>
            </trkpt>
            <trkpt lon="101.339822" lat="13.633021">
                <ele>67.430000</ele>
                <time>2016-07-30T08:47:27Z</time>
            </trkpt>
            <trkpt lon="101.339745" lat="13.633036">
                <ele>65.990000</ele>
                <time>2016-07-30T08:47:40Z</time>
            </trkpt>
            <trkpt lon="101.339525" lat="13.633212">
                <ele>67.430000</ele>
                <time>2016-07-30T08:47:56Z</time>
            </trkpt>
            <trkpt lon="101.338861" lat="13.633877">
                <ele>68.870000</ele>
                <time>2016-07-30T08:49:25Z</time>
            </trkpt>
            <trkpt lon="101.338624" lat="13.633908">
                <ele>64.550000</ele>
                <time>2016-07-30T08:49:58Z</time>
            </trkpt>
            <trkpt lon="101.338461" lat="13.634102">
                <ele>66.470000</ele>
                <time>2016-07-30T08:50:15Z</time>
            </trkpt>
            <trkpt lon="101.338359" lat="13.634308">
                <ele>65.510000</ele>
                <time>2016-07-30T08:50:48Z</time>
            </trkpt>
            <trkpt lon="101.337119" lat="13.635408">
                <ele>63.100000</ele>
                <time>2016-07-30T08:54:08Z</time>
            </trkpt>
            <trkpt lon="101.336900" lat="13.635764">
                <ele>60.220000</ele>
                <time>2016-07-30T08:55:02Z</time>
            </trkpt>
            <trkpt lon="101.336682" lat="13.636349">
                <ele>60.700000</ele>
                <time>2016-07-30T08:55:54Z</time>
            </trkpt>
            <trkpt lon="101.336462" lat="13.636594">
                <ele>57.340000</ele>
                <time>2016-07-30T08:56:21Z</time>
            </trkpt>
            <trkpt lon="101.336183" lat="13.637129">
                <ele>55.410000</ele>
                <time>2016-07-30T08:57:06Z</time>
            </trkpt>
            <trkpt lon="101.336170" lat="13.637932">
                <ele>58.780000</ele>
                <time>2016-07-30T08:58:29Z</time>
            </trkpt>
            <trkpt lon="101.336076" lat="13.638150">
                <ele>55.410000</ele>
                <time>2016-07-30T08:58:49Z</time>
            </trkpt>
            <trkpt lon="101.336331" lat="13.638853">
                <ele>57.820000</ele>
                <time>2016-07-30T08:59:17Z</time>
            </trkpt>
            <trkpt lon="101.336438" lat="13.639317">
                <ele>56.860000</ele>
                <time>2016-07-30T08:59:32Z</time>
            </trkpt>
            <trkpt lon="101.336567" lat="13.639934">
                <ele>55.890000</ele>
                <time>2016-07-30T08:59:52Z</time>
            </trkpt>
            <trkpt lon="101.336702" lat="13.639967">
                <ele>56.370000</ele>
                <time>2016-07-30T08:59:57Z</time>
            </trkpt>
            <trkpt lon="101.337001" lat="13.640006">
                <ele>58.780000</ele>
                <time>2016-07-30T09:00:10Z</time>
            </trkpt>
            <trkpt lon="101.337008" lat="13.640072">
                <ele>59.260000</ele>
                <time>2016-07-30T09:00:12Z</time>
            </trkpt>
            <trkpt lon="101.337087" lat="13.640621">
                <ele>58.780000</ele>
                <time>2016-07-30T09:00:26Z</time>
            </trkpt>
            <trkpt lon="101.337086" lat="13.641018">
                <ele>54.930000</ele>
                <time>2016-07-30T09:00:39Z</time>
            </trkpt>
            <trkpt lon="101.336824" lat="13.641091">
                <ele>54.930000</ele>
                <time>2016-07-30T09:00:57Z</time>
            </trkpt>
            <trkpt lon="101.336769" lat="13.641005">
                <ele>53.490000</ele>
                <time>2016-07-30T09:01:25Z</time>
            </trkpt>
            <trkpt lon="101.337170" lat="13.641299">
                <ele>54.930000</ele>
                <time>2016-07-30T09:01:46Z</time>
            </trkpt>
            <trkpt lon="101.337276" lat="13.641988">
                <ele>51.570000</ele>
                <time>2016-07-30T09:02:43Z</time>
            </trkpt>
            <trkpt lon="101.337759" lat="13.644173">
                <ele>38.590000</ele>
                <time>2016-07-30T09:03:28Z</time>
            </trkpt>
            <trkpt lon="101.337990" lat="13.645114">
                <ele>40.030000</ele>
                <time>2016-07-30T09:03:45Z</time>
            </trkpt>
            <trkpt lon="101.338314" lat="13.646728">
                <ele>37.150000</ele>
                <time>2016-07-30T09:04:13Z</time>
            </trkpt>
            <trkpt lon="101.338521" lat="13.648208">
                <ele>34.260000</ele>
                <time>2016-07-30T09:04:41Z</time>
            </trkpt>
            <trkpt lon="101.338099" lat="13.650891">
                <ele>32.820000</ele>
                <time>2016-07-30T09:05:40Z</time>
            </trkpt>
            <trkpt lon="101.337991" lat="13.653017">
                <ele>28.980000</ele>
                <time>2016-07-30T09:06:18Z</time>
            </trkpt>
            <trkpt lon="101.338022" lat="13.654801">
                <ele>27.050000</ele>
                <time>2016-07-30T09:06:50Z</time>
            </trkpt>
            <trkpt lon="101.337552" lat="13.654892">
                <ele>28.020000</ele>
                <time>2016-07-30T09:07:08Z</time>
            </trkpt>
            <trkpt lon="101.337368" lat="13.654964">
                <ele>27.050000</ele>
                <time>2016-07-30T09:07:19Z</time>
            </trkpt>
            <trkpt lon="101.338056" lat="13.654841">
                <ele>28.020000</ele>
                <time>2016-07-30T09:07:40Z</time>
            </trkpt>
            <trkpt lon="101.338347" lat="13.654895">
                <ele>27.530000</ele>
                <time>2016-07-30T09:07:48Z</time>
            </trkpt>
            <trkpt lon="101.338670" lat="13.654559">
                <ele>28.020000</ele>
                <time>2016-07-30T09:07:59Z</time>
            </trkpt>
            <trkpt lon="101.338872" lat="13.654535">
                <ele>28.500000</ele>
                <time>2016-07-30T09:08:04Z</time>
            </trkpt>
            <trkpt lon="101.339755" lat="13.654845">
                <ele>28.980000</ele>
                <time>2016-07-30T09:08:26Z</time>
            </trkpt>
            <trkpt lon="101.339852" lat="13.655037">
                <ele>29.460000</ele>
                <time>2016-07-30T09:08:31Z</time>
            </trkpt>
            <trkpt lon="101.339525" lat="13.657344">
                <ele>26.570000</ele>
                <time>2016-07-30T09:09:16Z</time>
            </trkpt>
            <trkpt lon="101.339816" lat="13.659628">
                <ele>21.290000</ele>
                <time>2016-07-30T09:10:02Z</time>
            </trkpt>
            <trkpt lon="101.340444" lat="13.660177">
                <ele>23.210000</ele>
                <time>2016-07-30T09:10:22Z</time>
            </trkpt>
            <trkpt lon="101.340793" lat="13.660732">
                <ele>26.570000</ele>
                <time>2016-07-30T09:10:36Z</time>
            </trkpt>
            <trkpt lon="101.341648" lat="13.660774">
                <ele>26.570000</ele>
                <time>2016-07-30T09:10:55Z</time>
            </trkpt>
            <trkpt lon="101.342082" lat="13.660701">
                <ele>26.570000</ele>
                <time>2016-07-30T09:11:04Z</time>
            </trkpt>
            <trkpt lon="101.342413" lat="13.660806">
                <ele>26.570000</ele>
                <time>2016-07-30T09:11:11Z</time>
            </trkpt>
            <trkpt lon="101.343414" lat="13.661079">
                <ele>26.090000</ele>
                <time>2016-07-30T09:11:31Z</time>
            </trkpt>
            <trkpt lon="101.344179" lat="13.662127">
                <ele>26.090000</ele>
                <time>2016-07-30T09:11:58Z</time>
            </trkpt>
            <trkpt lon="101.344588" lat="13.662487">
                <ele>26.090000</ele>
                <time>2016-07-30T09:12:12Z</time>
            </trkpt>
            <trkpt lon="101.344943" lat="13.662795">
                <ele>25.130000</ele>
                <time>2016-07-30T09:12:22Z</time>
            </trkpt>
            <trkpt lon="101.345889" lat="13.663925">
                <ele>26.090000</ele>
                <time>2016-07-30T09:12:55Z</time>
            </trkpt>
            <trkpt lon="101.346256" lat="13.664654">
                <ele>28.020000</ele>
                <time>2016-07-30T09:13:12Z</time>
            </trkpt>
            <trkpt lon="101.346390" lat="13.664904">
                <ele>28.020000</ele>
                <time>2016-07-30T09:13:18Z</time>
            </trkpt>
            <trkpt lon="101.347197" lat="13.666110">
                <ele>25.130000</ele>
                <time>2016-07-30T09:13:54Z</time>
            </trkpt>
            <trkpt lon="101.347854" lat="13.666743">
                <ele>26.570000</ele>
                <time>2016-07-30T09:14:16Z</time>
            </trkpt>
            <trkpt lon="101.348105" lat="13.667067">
                <ele>25.610000</ele>
                <time>2016-07-30T09:14:28Z</time>
            </trkpt>
            <trkpt lon="101.348134" lat="13.667395">
                <ele>26.090000</ele>
                <time>2016-07-30T09:14:39Z</time>
            </trkpt>
            <trkpt lon="101.347700" lat="13.668163">
                <ele>23.690000</ele>
                <time>2016-07-30T09:15:05Z</time>
            </trkpt>
            <trkpt lon="101.346683" lat="13.669127">
                <ele>22.250000</ele>
                <time>2016-07-30T09:15:43Z</time>
            </trkpt>
            <trkpt lon="101.346207" lat="13.669746">
                <ele>22.730000</ele>
                <time>2016-07-30T09:16:03Z</time>
            </trkpt>
            <trkpt lon="101.346103" lat="13.670778">
                <ele>21.290000</ele>
                <time>2016-07-30T09:16:30Z</time>
            </trkpt>
            <trkpt lon="101.346359" lat="13.672378">
                <ele>21.770000</ele>
                <time>2016-07-30T09:17:12Z</time>
            </trkpt>
            <trkpt lon="101.346388" lat="13.672454">
                <ele>21.770000</ele>
                <time>2016-07-30T09:17:14Z</time>
            </trkpt>
            <trkpt lon="101.346246" lat="13.673180">
                <ele>22.730000</ele>
                <time>2016-07-30T09:17:33Z</time>
            </trkpt>
            <trkpt lon="101.345950" lat="13.674372">
                <ele>22.730000</ele>
                <time>2016-07-30T09:18:01Z</time>
            </trkpt>
            <trkpt lon="101.345373" lat="13.676484">
                <ele>19.360000</ele>
                <time>2016-07-30T09:18:50Z</time>
            </trkpt>
            <trkpt lon="101.345334" lat="13.677470">
                <ele>20.320000</ele>
                <time>2016-07-30T09:19:14Z</time>
            </trkpt>
            <trkpt lon="101.344343" lat="13.678060">
                <ele>17.920000</ele>
                <time>2016-07-30T09:19:40Z</time>
            </trkpt>
            <trkpt lon="101.343513" lat="13.677669">
                <ele>17.920000</ele>
                <time>2016-07-30T09:20:05Z</time>
            </trkpt>
            <trkpt lon="101.342546" lat="13.677853">
                <ele>18.880000</ele>
                <time>2016-07-30T09:20:29Z</time>
            </trkpt>
            <trkpt lon="101.342075" lat="13.678027">
                <ele>18.400000</ele>
                <time>2016-07-30T09:20:42Z</time>
            </trkpt>
            <trkpt lon="101.341582" lat="13.678549">
                <ele>16.000000</ele>
                <time>2016-07-30T09:20:58Z</time>
            </trkpt>
            <trkpt lon="101.341156" lat="13.678832">
                <ele>16.000000</ele>
                <time>2016-07-30T09:21:10Z</time>
            </trkpt>
            <trkpt lon="101.340808" lat="13.679652">
                <ele>16.000000</ele>
                <time>2016-07-30T09:21:31Z</time>
            </trkpt>
            <trkpt lon="101.340048" lat="13.681858">
                <ele>16.480000</ele>
                <time>2016-07-30T09:22:29Z</time>
            </trkpt>
            <trkpt lon="101.339623" lat="13.682518">
                <ele>16.480000</ele>
                <time>2016-07-30T09:22:55Z</time>
            </trkpt>
            <trkpt lon="101.339538" lat="13.683122">
                <ele>16.960000</ele>
                <time>2016-07-30T09:23:11Z</time>
            </trkpt>
            <trkpt lon="101.339426" lat="13.683225">
                <ele>17.440000</ele>
                <time>2016-07-30T09:23:22Z</time>
            </trkpt>
            <trkpt lon="101.338274" lat="13.683361">
                <ele>16.480000</ele>
                <time>2016-07-30T09:23:50Z</time>
            </trkpt>
            <trkpt lon="101.337635" lat="13.683573">
                <ele>16.480000</ele>
                <time>2016-07-30T09:24:04Z</time>
            </trkpt>
            <trkpt lon="101.336593" lat="13.684735">
                <ele>15.520000</ele>
                <time>2016-07-30T09:24:37Z</time>
            </trkpt>
            <trkpt lon="101.336879" lat="13.685270">
                <ele>14.560000</ele>
                <time>2016-07-30T09:24:55Z</time>
            </trkpt>
            <trkpt lon="101.336532" lat="13.686161">
                <ele>15.520000</ele>
                <time>2016-07-30T09:25:15Z</time>
            </trkpt>
            <trkpt lon="101.336578" lat="13.687090">
                <ele>14.560000</ele>
                <time>2016-07-30T09:25:34Z</time>
            </trkpt>
            <trkpt lon="101.337552" lat="13.688291">
                <ele>16.000000</ele>
                <time>2016-07-30T09:26:06Z</time>
            </trkpt>
            <trkpt lon="101.337919" lat="13.688945">
                <ele>17.440000</ele>
                <time>2016-07-30T09:26:21Z</time>
            </trkpt>
            <trkpt lon="101.338300" lat="13.689993">
                <ele>14.560000</ele>
                <time>2016-07-30T09:26:43Z</time>
            </trkpt>
            <trkpt lon="101.337901" lat="13.691292">
                <ele>13.120000</ele>
                <time>2016-07-30T09:27:08Z</time>
            </trkpt>
            <trkpt lon="101.337891" lat="13.691458">
                <ele>12.630000</ele>
                <time>2016-07-30T09:27:11Z</time>
            </trkpt>
            <trkpt lon="101.338264" lat="13.691699">
                <ele>13.600000</ele>
                <time>2016-07-30T09:27:20Z</time>
            </trkpt>
            <trkpt lon="101.338322" lat="13.691823">
                <ele>13.600000</ele>
                <time>2016-07-30T09:27:23Z</time>
            </trkpt>
            <trkpt lon="101.338387" lat="13.692717">
                <ele>10.710000</ele>
                <time>2016-07-30T09:27:40Z</time>
            </trkpt>
            <trkpt lon="101.338226" lat="13.693126">
                <ele>12.150000</ele>
                <time>2016-07-30T09:27:53Z</time>
            </trkpt>
            <trkpt lon="101.338166" lat="13.693092">
                <ele>12.630000</ele>
                <time>2016-07-30T09:27:55Z</time>
            </trkpt>
            <trkpt lon="101.337441" lat="13.693968">
                <ele>11.670000</ele>
                <time>2016-07-30T09:28:23Z</time>
            </trkpt>
            <trkpt lon="101.337312" lat="13.695512">
                <ele>11.190000</ele>
                <time>2016-07-30T09:28:59Z</time>
            </trkpt>
            <trkpt lon="101.336622" lat="13.696974">
                <ele>12.150000</ele>
                <time>2016-07-30T09:29:39Z</time>
            </trkpt>
            <trkpt lon="101.336318" lat="13.697281">
                <ele>12.630000</ele>
                <time>2016-07-30T09:29:51Z</time>
            </trkpt>
            <trkpt lon="101.335868" lat="13.697282">
                <ele>13.600000</ele>
                <time>2016-07-30T09:30:03Z</time>
            </trkpt>
            <trkpt lon="101.335355" lat="13.697464">
                <ele>15.040000</ele>
                <time>2016-07-30T09:30:17Z</time>
            </trkpt>
            <trkpt lon="101.334896" lat="13.697444">
                <ele>16.000000</ele>
                <time>2016-07-30T09:30:29Z</time>
            </trkpt>
            <trkpt lon="101.334005" lat="13.698016">
                <ele>15.520000</ele>
                <time>2016-07-30T09:30:57Z</time>
            </trkpt>
            <trkpt lon="101.333416" lat="13.698486">
                <ele>15.040000</ele>
                <time>2016-07-30T09:31:15Z</time>
            </trkpt>
            <trkpt lon="101.332704" lat="13.698997">
                <ele>15.040000</ele>
                <time>2016-07-30T09:31:36Z</time>
            </trkpt>
            <trkpt lon="101.332314" lat="13.699923">
                <ele>12.630000</ele>
                <time>2016-07-30T09:32:03Z</time>
            </trkpt>
            <trkpt lon="101.331652" lat="13.700686">
                <ele>13.120000</ele>
                <time>2016-07-30T09:32:30Z</time>
            </trkpt>
            <trkpt lon="101.331519" lat="13.701063">
                <ele>13.600000</ele>
                <time>2016-07-30T09:32:41Z</time>
            </trkpt>
            <trkpt lon="101.330856" lat="13.702083">
                <ele>12.150000</ele>
                <time>2016-07-30T09:33:12Z</time>
            </trkpt>
            <trkpt lon="101.330449" lat="13.702281">
                <ele>14.080000</ele>
                <time>2016-07-30T09:33:26Z</time>
            </trkpt>
            <trkpt lon="101.330442" lat="13.702294">
                <ele>13.600000</ele>
                <time>2016-07-30T09:33:27Z</time>
            </trkpt>
            <trkpt lon="101.331175" lat="13.707724">
                <ele>12.150000</ele>
                <time>2016-07-30T09:35:32Z</time>
            </trkpt>
            <trkpt lon="101.331426" lat="13.708516">
                <ele>11.190000</ele>
                <time>2016-07-30T09:35:48Z</time>
            </trkpt>
            <trkpt lon="101.332555" lat="13.708896">
                <ele>9.750000</ele>
                <time>2016-07-30T09:36:15Z</time>
            </trkpt>
            <trkpt lon="101.332797" lat="13.708265">
                <ele>10.230000</ele>
                <time>2016-07-30T09:36:30Z</time>
            </trkpt>
            <trkpt lon="101.333878" lat="13.708364">
                <ele>10.710000</ele>
                <time>2016-07-30T09:36:50Z</time>
            </trkpt>
            <trkpt lon="101.334183" lat="13.707848">
                <ele>11.190000</ele>
                <time>2016-07-30T09:37:02Z</time>
            </trkpt>
            <trkpt lon="101.335450" lat="13.706840">
                <ele>12.150000</ele>
                <time>2016-07-30T09:37:34Z</time>
            </trkpt>
            <trkpt lon="101.335551" lat="13.706773">
                <ele>13.120000</ele>
                <time>2016-07-30T09:37:37Z</time>
            </trkpt>
            <trkpt lon="101.335982" lat="13.706539">
                <ele>13.120000</ele>
                <time>2016-07-30T09:37:47Z</time>
            </trkpt>
            <trkpt lon="101.336265" lat="13.706146">
                <ele>12.150000</ele>
                <time>2016-07-30T09:37:58Z</time>
            </trkpt>
            <trkpt lon="101.337366" lat="13.706081">
                <ele>12.150000</ele>
                <time>2016-07-30T09:38:21Z</time>
            </trkpt>
            <trkpt lon="101.338816" lat="13.723099">
                <ele>11.190000</ele>
                <time>2016-07-30T09:43:54Z</time>
            </trkpt>
            <trkpt lon="101.339198" lat="13.727056">
                <ele>10.710000</ele>
                <time>2016-07-30T09:45:09Z</time>
            </trkpt>
            <trkpt lon="101.336565" lat="13.727153">
                <ele>12.150000</ele>
                <time>2016-07-30T09:46:04Z</time>
            </trkpt>
            <trkpt lon="101.336249" lat="13.727187">
                <ele>12.150000</ele>
                <time>2016-07-30T09:46:17Z</time>
            </trkpt>
            <trkpt lon="101.338239" lat="13.734797">
                <ele>9.270000</ele>
                <time>2016-07-30T09:48:50Z</time>
            </trkpt>
            <trkpt lon="101.338380" lat="13.735118">
                <ele>10.230000</ele>
                <time>2016-07-30T09:49:01Z</time>
            </trkpt>
            <trkpt lon="101.338584" lat="13.735082">
                <ele>12.630000</ele>
                <time>2016-07-30T09:49:07Z</time>
            </trkpt>
            <trkpt lon="101.338632" lat="13.734969">
                <ele>15.520000</ele>
                <time>2016-07-30T09:49:24Z</time>
            </trkpt>
            <trkpt lon="101.338638" lat="13.734981">
                <ele>15.040000</ele>
                <time>2016-07-30T09:49:40Z</time>
            </trkpt>
        </trkseg>
    </trk>
</gpx>